sensor_id;sensor_type;location;lat;lon;timestamp;P1;P2;P0
66111;PMS7003;52890;52.490;4.976;2023-06-22T00:00:18;6;6;
66111;PMS7003;52890;52.490;4.976;2023-06-22T00:01:17;5;5;
66111;PMS7003;52890;52.490;4.976;2023-06-22T00:02:17;4;4;
66111;PMS7003;52890;52.490;4.976;2023-06-22T00:03:17;5;5;
66111;PMS7003;52890;52.490;4.976;2023-06-22T00:04:17;10;10;
66111;PMS7003;52890;52.490;4.976;2023-06-22T00:05:17;7;7;
66111;PMS7003;52890;52.490;4.976;2023-06-22T00:06:17;6;6;
66111;PMS7003;52890;52.490;4.976;2023-06-22T00:07:17;8;8;
66111;PMS7003;52890;52.490;4.976;2023-06-22T00:08:17;4;4;
66111;PMS7003;52890;52.490;4.976;2023-06-22T00:09:17;6;6;
66111;PMS7003;52890;52.490;4.976;2023-06-22T00:10:17;5;5;
66111;PMS7003;52890;52.490;4.976;2023-06-22T00:11:17;7;7;
66111;PMS7003;52890;52.490;4.976;2023-06-22T00:12:17;7;7;
66111;PMS7003;52890;52.490;4.976;2023-06-22T00:13:17;2;2;
66111;PMS7003;52890;52.490;4.976;2023-06-22T00:14:17;6;6;
66111;PMS7003;52890;52.490;4.976;2023-06-22T00:15:17;3;3;
66111;PMS7003;52890;52.490;4.976;2023-06-22T00:16:17;8;8;
66111;PMS7003;52890;52.490;4.976;2023-06-22T00:17:17;7;7;
66111;PMS7003;52890;52.490;4.976;2023-06-22T00:18:17;5;5;
66111;PMS7003;52890;52.490;4.976;2023-06-22T00:19:17;8;8;
66111;PMS7003;52890;52.490;4.976;2023-06-22T00:20:17;12;12;
66111;PMS7003;52890;52.490;4.976;2023-06-22T00:21:17;6;6;
66111;PMS7003;52890;52.490;4.976;2023-06-22T00:22:17;9;9;
66111;PMS7003;52890;52.490;4.976;2023-06-22T00:23:17;6;6;
66111;PMS7003;52890;52.490;4.976;2023-06-22T00:24:17;9;9;
66111;PMS7003;52890;52.490;4.976;2023-06-22T00:26:17;7;7;
66111;PMS7003;52890;52.490;4.976;2023-06-22T00:27:17;5;5;
66111;PMS7003;52890;52.490;4.976;2023-06-22T00:28:17;4;4;
66111;PMS7003;52890;52.490;4.976;2023-06-22T00:29:17;8;8;
66111;PMS7003;52890;52.490;4.976;2023-06-22T00:30:17;8;8;
66111;PMS7003;52890;52.490;4.976;2023-06-22T00:31:17;5;5;
66111;PMS7003;52890;52.490;4.976;2023-06-22T00:32:17;4;4;
66111;PMS7003;52890;52.490;4.976;2023-06-22T00:33:17;6;6;
66111;PMS7003;52890;52.490;4.976;2023-06-22T00:34:17;10;10;
66111;PMS7003;52890;52.490;4.976;2023-06-22T00:35:17;7;7;
66111;PMS7003;52890;52.490;4.976;2023-06-22T00:36:17;6;6;
66111;PMS7003;52890;52.490;4.976;2023-06-22T00:37:17;7;7;
66111;PMS7003;52890;52.490;4.976;2023-06-22T00:38:17;4;4;
66111;PMS7003;52890;52.490;4.976;2023-06-22T00:39:17;8;8;
66111;PMS7003;52890;52.490;4.976;2023-06-22T00:40:17;5;5;
66111;PMS7003;52890;52.490;4.976;2023-06-22T00:41:17;6;6;
66111;PMS7003;52890;52.490;4.976;2023-06-22T00:42:17;5;5;
66111;PMS7003;52890;52.490;4.976;2023-06-22T00:43:18;6;6;
66111;PMS7003;52890;52.490;4.976;2023-06-22T00:44:17;7;7;
66111;PMS7003;52890;52.490;4.976;2023-06-22T00:45:17;5;5;
66111;PMS7003;52890;52.490;4.976;2023-06-22T00:46:17;6;6;
66111;PMS7003;52890;52.490;4.976;2023-06-22T00:47:17;7;7;
66111;PMS7003;52890;52.490;4.976;2023-06-22T00:48:17;6;6;
66111;PMS7003;52890;52.490;4.976;2023-06-22T00:49:17;6;6;
66111;PMS7003;52890;52.490;4.976;2023-06-22T00:50:18;7;7;
66111;PMS7003;52890;52.490;4.976;2023-06-22T00:51:17;6;6;
66111;PMS7003;52890;52.490;4.976;2023-06-22T00:52:18;5;5;
66111;PMS7003;52890;52.490;4.976;2023-06-22T00:53:17;6;6;
66111;PMS7003;52890;52.490;4.976;2023-06-22T00:54:17;6;6;
66111;PMS7003;52890;52.490;4.976;2023-06-22T00:55:18;10;10;
66111;PMS7003;52890;52.490;4.976;2023-06-22T00:56:17;6;6;
66111;PMS7003;52890;52.490;4.976;2023-06-22T00:57:17;9;9;
66111;PMS7003;52890;52.490;4.976;2023-06-22T00:58:17;7;7;
66111;PMS7003;52890;52.490;4.976;2023-06-22T00:59:17;8;8;
66111;PMS7003;52890;52.490;4.976;2023-06-22T01:00:17;7;7;
66111;PMS7003;52890;52.490;4.976;2023-06-22T01:01:17;5;5;
66111;PMS7003;52890;52.490;4.976;2023-06-22T01:02:17;6;6;
66111;PMS7003;52890;52.490;4.976;2023-06-22T01:04:17;6;6;
66111;PMS7003;52890;52.490;4.976;2023-06-22T01:05:18;12;12;
66111;PMS7003;52890;52.490;4.976;2023-06-22T01:06:19;6;6;
66111;PMS7003;52890;52.490;4.976;2023-06-22T01:07:20;7;7;
66111;PMS7003;52890;52.490;4.976;2023-06-22T01:08:22;8;8;
66111;PMS7003;52890;52.490;4.976;2023-06-22T01:09:19;6;6;
66111;PMS7003;52890;52.490;4.976;2023-06-22T01:10:18;6;6;
66111;PMS7003;52890;52.490;4.976;2023-06-22T01:11:18;5;5;
66111;PMS7003;52890;52.490;4.976;2023-06-22T01:12:17;5;5;
66111;PMS7003;52890;52.490;4.976;2023-06-22T01:13:19;8;8;
66111;PMS7003;52890;52.490;4.976;2023-06-22T01:14:19;8;8;
66111;PMS7003;52890;52.490;4.976;2023-06-22T01:15:18;5;5;
66111;PMS7003;52890;52.490;4.976;2023-06-22T01:16:19;6;6;
66111;PMS7003;52890;52.490;4.976;2023-06-22T01:17:17;9;9;
66111;PMS7003;52890;52.490;4.976;2023-06-22T01:18:18;6;6;
66111;PMS7003;52890;52.490;4.976;2023-06-22T01:19:20;4;4;
66111;PMS7003;52890;52.490;4.976;2023-06-22T01:20:17;7;7;
66111;PMS7003;52890;52.490;4.976;2023-06-22T01:21:19;6;6;
66111;PMS7003;52890;52.490;4.976;2023-06-22T01:22:17;7;7;
66111;PMS7003;52890;52.490;4.976;2023-06-22T01:23:20;6;6;
66111;PMS7003;52890;52.490;4.976;2023-06-22T01:24:18;3;3;
66111;PMS7003;52890;52.490;4.976;2023-06-22T01:25:19;3;3;
66111;PMS7003;52890;52.490;4.976;2023-06-22T01:26:18;3;3;
66111;PMS7003;52890;52.490;4.976;2023-06-22T01:28:20;7;7;
66111;PMS7003;52890;52.490;4.976;2023-06-22T01:29:17;8;8;
66111;PMS7003;52890;52.490;4.976;2023-06-22T01:30:17;6;6;
66111;PMS7003;52890;52.490;4.976;2023-06-22T01:31:18;8;8;
66111;PMS7003;52890;52.490;4.976;2023-06-22T01:32:17;5;5;
66111;PMS7003;52890;52.490;4.976;2023-06-22T01:33:17;8;8;
66111;PMS7003;52890;52.490;4.976;2023-06-22T01:34:17;6;6;
66111;PMS7003;52890;52.490;4.976;2023-06-22T01:35:17;5;5;
66111;PMS7003;52890;52.490;4.976;2023-06-22T01:37:17;7;7;
66111;PMS7003;52890;52.490;4.976;2023-06-22T01:38:17;9;9;
66111;PMS7003;52890;52.490;4.976;2023-06-22T01:39:17;7;7;
66111;PMS7003;52890;52.490;4.976;2023-06-22T01:40:17;8;8;
66111;PMS7003;52890;52.490;4.976;2023-06-22T01:41:17;7;7;
66111;PMS7003;52890;52.490;4.976;2023-06-22T01:42:18;8;8;
66111;PMS7003;52890;52.490;4.976;2023-06-22T01:43:17;9;9;
66111;PMS7003;52890;52.490;4.976;2023-06-22T01:44:17;5;5;
66111;PMS7003;52890;52.490;4.976;2023-06-22T01:45:17;7;7;
66111;PMS7003;52890;52.490;4.976;2023-06-22T01:46:17;11;11;
66111;PMS7003;52890;52.490;4.976;2023-06-22T01:47:17;6;6;
66111;PMS7003;52890;52.490;4.976;2023-06-22T01:48:17;9;9;
66111;PMS7003;52890;52.490;4.976;2023-06-22T01:49:17;6;6;
66111;PMS7003;52890;52.490;4.976;2023-06-22T01:50:17;7;7;
66111;PMS7003;52890;52.490;4.976;2023-06-22T01:51:17;8;8;
66111;PMS7003;52890;52.490;4.976;2023-06-22T01:52:17;8;8;
66111;PMS7003;52890;52.490;4.976;2023-06-22T01:53:17;8;8;
66111;PMS7003;52890;52.490;4.976;2023-06-22T01:54:18;7;7;
66111;PMS7003;52890;52.490;4.976;2023-06-22T01:55:17;7;7;
66111;PMS7003;52890;52.490;4.976;2023-06-22T01:56:17;11;11;
66111;PMS7003;52890;52.490;4.976;2023-06-22T01:57:17;9;9;
66111;PMS7003;52890;52.490;4.976;2023-06-22T01:58:17;6;6;
66111;PMS7003;52890;52.490;4.976;2023-06-22T01:59:20;7;7;
66111;PMS7003;52890;52.490;4.976;2023-06-22T02:00:18;7;7;
66111;PMS7003;52890;52.490;4.976;2023-06-22T02:01:19;3;3;
66111;PMS7003;52890;52.490;4.976;2023-06-22T02:02:18;8;8;
66111;PMS7003;52890;52.490;4.976;2023-06-22T02:03:18;4;4;
66111;PMS7003;52890;52.490;4.976;2023-06-22T02:04:20;4;4;
66111;PMS7003;52890;52.490;4.976;2023-06-22T02:05:17;7;7;
66111;PMS7003;52890;52.490;4.976;2023-06-22T02:06:19;4;4;
66111;PMS7003;52890;52.490;4.976;2023-06-22T02:07:17;6;6;
66111;PMS7003;52890;52.490;4.976;2023-06-22T02:08:19;7;7;
66111;PMS7003;52890;52.490;4.976;2023-06-22T02:09:17;5;5;
66111;PMS7003;52890;52.490;4.976;2023-06-22T02:10:18;5;5;
66111;PMS7003;52890;52.490;4.976;2023-06-22T02:11:18;8;8;
66111;PMS7003;52890;52.490;4.976;2023-06-22T02:12:18;8;8;
66111;PMS7003;52890;52.490;4.976;2023-06-22T02:13:18;6;6;
66111;PMS7003;52890;52.490;4.976;2023-06-22T02:14:17;7;7;
66111;PMS7003;52890;52.490;4.976;2023-06-22T02:15:17;8;8;
66111;PMS7003;52890;52.490;4.976;2023-06-22T02:16:17;6;6;
66111;PMS7003;52890;52.490;4.976;2023-06-22T02:17:17;7;7;
66111;PMS7003;52890;52.490;4.976;2023-06-22T02:18:17;5;5;
66111;PMS7003;52890;52.490;4.976;2023-06-22T02:19:22;9;9;
66111;PMS7003;52890;52.490;4.976;2023-06-22T02:20:17;5;5;
66111;PMS7003;52890;52.490;4.976;2023-06-22T02:21:17;6;6;
66111;PMS7003;52890;52.490;4.976;2023-06-22T02:22:18;7;7;
66111;PMS7003;52890;52.490;4.976;2023-06-22T02:23:17;7;7;
66111;PMS7003;52890;52.490;4.976;2023-06-22T02:24:17;7;7;
66111;PMS7003;52890;52.490;4.976;2023-06-22T02:25:17;10;10;
66111;PMS7003;52890;52.490;4.976;2023-06-22T02:26:17;8;8;
66111;PMS7003;52890;52.490;4.976;2023-06-22T02:27:17;3;3;
66111;PMS7003;52890;52.490;4.976;2023-06-22T02:28:17;7;7;
66111;PMS7003;52890;52.490;4.976;2023-06-22T02:29:17;9;9;
66111;PMS7003;52890;52.490;4.976;2023-06-22T02:30:17;7;7;
66111;PMS7003;52890;52.490;4.976;2023-06-22T02:31:17;5;5;
66111;PMS7003;52890;52.490;4.976;2023-06-22T02:32:17;6;6;
66111;PMS7003;52890;52.490;4.976;2023-06-22T02:33:17;9;9;
66111;PMS7003;52890;52.490;4.976;2023-06-22T02:34:17;12;12;
66111;PMS7003;52890;52.490;4.976;2023-06-22T02:35:17;7;7;
66111;PMS7003;52890;52.490;4.976;2023-06-22T02:36:17;10;10;
66111;PMS7003;52890;52.490;4.976;2023-06-22T02:37:17;12;12;
66111;PMS7003;52890;52.490;4.976;2023-06-22T02:38:17;9;9;
66111;PMS7003;52890;52.490;4.976;2023-06-22T02:39:19;8;8;
66111;PMS7003;52890;52.490;4.976;2023-06-22T02:40:17;7;7;
66111;PMS7003;52890;52.490;4.976;2023-06-22T02:41:17;9;9;
66111;PMS7003;52890;52.490;4.976;2023-06-22T02:42:17;8;8;
66111;PMS7003;52890;52.490;4.976;2023-06-22T02:44:17;7;7;
66111;PMS7003;52890;52.490;4.976;2023-06-22T02:45:17;5;5;
66111;PMS7003;52890;52.490;4.976;2023-06-22T02:46:17;7;7;
66111;PMS7003;52890;52.490;4.976;2023-06-22T02:47:17;5;5;
66111;PMS7003;52890;52.490;4.976;2023-06-22T02:48:17;7;7;
66111;PMS7003;52890;52.490;4.976;2023-06-22T02:49:17;5;5;
66111;PMS7003;52890;52.490;4.976;2023-06-22T02:50:17;6;6;
66111;PMS7003;52890;52.490;4.976;2023-06-22T02:51:17;9;9;
66111;PMS7003;52890;52.490;4.976;2023-06-22T02:52:17;7;7;
66111;PMS7003;52890;52.490;4.976;2023-06-22T02:53:17;9;9;
66111;PMS7003;52890;52.490;4.976;2023-06-22T02:54:17;5;5;
66111;PMS7003;52890;52.490;4.976;2023-06-22T02:55:17;7;7;
66111;PMS7003;52890;52.490;4.976;2023-06-22T02:56:17;5;5;
66111;PMS7003;52890;52.490;4.976;2023-06-22T02:57:17;6;6;
66111;PMS7003;52890;52.490;4.976;2023-06-22T02:58:17;8;8;
66111;PMS7003;52890;52.490;4.976;2023-06-22T02:59:17;8;8;
66111;PMS7003;52890;52.490;4.976;2023-06-22T03:00:18;6;6;
66111;PMS7003;52890;52.490;4.976;2023-06-22T03:01:17;6;6;
66111;PMS7003;52890;52.490;4.976;2023-06-22T03:02:17;6;6;
66111;PMS7003;52890;52.490;4.976;2023-06-22T03:03:17;6;6;
66111;PMS7003;52890;52.490;4.976;2023-06-22T03:04:17;7;7;
66111;PMS7003;52890;52.490;4.976;2023-06-22T03:05:17;5;5;
66111;PMS7003;52890;52.490;4.976;2023-06-22T03:07:17;7;8;
66111;PMS7003;52890;52.490;4.976;2023-06-22T03:08:17;4;4;
66111;PMS7003;52890;52.490;4.976;2023-06-22T03:09:17;5;5;
66111;PMS7003;52890;52.490;4.976;2023-06-22T03:10:17;8;8;
66111;PMS7003;52890;52.490;4.976;2023-06-22T03:11:17;8;8;
66111;PMS7003;52890;52.490;4.976;2023-06-22T03:12:17;11;11;
66111;PMS7003;52890;52.490;4.976;2023-06-22T03:13:17;9;9;
66111;PMS7003;52890;52.490;4.976;2023-06-22T03:14:17;6;6;
66111;PMS7003;52890;52.490;4.976;2023-06-22T03:15:17;8;8;
66111;PMS7003;52890;52.490;4.976;2023-06-22T03:16:17;6;6;
66111;PMS7003;52890;52.490;4.976;2023-06-22T03:17:17;6;6;
66111;PMS7003;52890;52.490;4.976;2023-06-22T03:18:17;7;7;
66111;PMS7003;52890;52.490;4.976;2023-06-22T03:19:17;6;6;
66111;PMS7003;52890;52.490;4.976;2023-06-22T03:21:17;7;7;
66111;PMS7003;52890;52.490;4.976;2023-06-22T03:22:17;6;6;
66111;PMS7003;52890;52.490;4.976;2023-06-22T03:23:17;6;6;
66111;PMS7003;52890;52.490;4.976;2023-06-22T03:24:17;7;7;
66111;PMS7003;52890;52.490;4.976;2023-06-22T03:25:17;6;6;
66111;PMS7003;52890;52.490;4.976;2023-06-22T03:26:17;10;10;
66111;PMS7003;52890;52.490;4.976;2023-06-22T03:27:17;4;4;
66111;PMS7003;52890;52.490;4.976;2023-06-22T03:28:17;10;10;
66111;PMS7003;52890;52.490;4.976;2023-06-22T03:29:17;12;12;
66111;PMS7003;52890;52.490;4.976;2023-06-22T03:30:17;3;3;
66111;PMS7003;52890;52.490;4.976;2023-06-22T03:31:17;7;7;
66111;PMS7003;52890;52.490;4.976;2023-06-22T03:32:17;8;8;
66111;PMS7003;52890;52.490;4.976;2023-06-22T03:33:17;6;6;
66111;PMS7003;52890;52.490;4.976;2023-06-22T03:34:17;8;8;
66111;PMS7003;52890;52.490;4.976;2023-06-22T03:35:17;7;7;
66111;PMS7003;52890;52.490;4.976;2023-06-22T03:36:17;7;7;
66111;PMS7003;52890;52.490;4.976;2023-06-22T03:37:17;5;5;
66111;PMS7003;52890;52.490;4.976;2023-06-22T03:38:17;5;5;
66111;PMS7003;52890;52.490;4.976;2023-06-22T03:39:17;5;5;
66111;PMS7003;52890;52.490;4.976;2023-06-22T03:40:17;8;8;
66111;PMS7003;52890;52.490;4.976;2023-06-22T03:41:17;7;7;
66111;PMS7003;52890;52.490;4.976;2023-06-22T03:42:17;6;6;
66111;PMS7003;52890;52.490;4.976;2023-06-22T03:43:17;4;4;
66111;PMS7003;52890;52.490;4.976;2023-06-22T03:44:17;3;3;
66111;PMS7003;52890;52.490;4.976;2023-06-22T03:45:17;6;6;
66111;PMS7003;52890;52.490;4.976;2023-06-22T03:46:17;4;4;
66111;PMS7003;52890;52.490;4.976;2023-06-22T03:47:17;5;5;
66111;PMS7003;52890;52.490;4.976;2023-06-22T03:48:17;5;5;
66111;PMS7003;52890;52.490;4.976;2023-06-22T03:49:17;9;9;
66111;PMS7003;52890;52.490;4.976;2023-06-22T03:50:17;8;8;
66111;PMS7003;52890;52.490;4.976;2023-06-22T03:51:17;16;16;
66111;PMS7003;52890;52.490;4.976;2023-06-22T03:52:18;11;11;
66111;PMS7003;52890;52.490;4.976;2023-06-22T03:53:17;9;9;
66111;PMS7003;52890;52.490;4.976;2023-06-22T03:54:17;6;6;
66111;PMS7003;52890;52.490;4.976;2023-06-22T03:55:19;4;4;
66111;PMS7003;52890;52.490;4.976;2023-06-22T03:56:17;8;8;
66111;PMS7003;52890;52.490;4.976;2023-06-22T03:57:17;9;9;
66111;PMS7003;52890;52.490;4.976;2023-06-22T03:58:18;8;8;
66111;PMS7003;52890;52.490;4.976;2023-06-22T03:59:17;7;7;
66111;PMS7003;52890;52.490;4.976;2023-06-22T04:00:18;6;6;
66111;PMS7003;52890;52.490;4.976;2023-06-22T04:01:17;7;7;
66111;PMS7003;52890;52.490;4.976;2023-06-22T04:02:17;8;8;
66111;PMS7003;52890;52.490;4.976;2023-06-22T04:03:18;8;8;
66111;PMS7003;52890;52.490;4.976;2023-06-22T04:04:17;5;5;
66111;PMS7003;52890;52.490;4.976;2023-06-22T04:05:17;6;6;
66111;PMS7003;52890;52.490;4.976;2023-06-22T04:06:17;8;8;
66111;PMS7003;52890;52.490;4.976;2023-06-22T04:07:17;5;5;
66111;PMS7003;52890;52.490;4.976;2023-06-22T04:08:17;7;7;
66111;PMS7003;52890;52.490;4.976;2023-06-22T04:09:17;6;6;
66111;PMS7003;52890;52.490;4.976;2023-06-22T04:10:17;5;5;
66111;PMS7003;52890;52.490;4.976;2023-06-22T04:11:17;8;8;
66111;PMS7003;52890;52.490;4.976;2023-06-22T04:12:17;6;6;
66111;PMS7003;52890;52.490;4.976;2023-06-22T04:13:17;7;7;
66111;PMS7003;52890;52.490;4.976;2023-06-22T04:14:17;6;6;
66111;PMS7003;52890;52.490;4.976;2023-06-22T04:15:17;6;6;
66111;PMS7003;52890;52.490;4.976;2023-06-22T04:16:17;5;5;
66111;PMS7003;52890;52.490;4.976;2023-06-22T04:17:17;6;6;
66111;PMS7003;52890;52.490;4.976;2023-06-22T04:18:17;6;6;
66111;PMS7003;52890;52.490;4.976;2023-06-22T04:19:17;7;7;
66111;PMS7003;52890;52.490;4.976;2023-06-22T04:20:17;5;5;
66111;PMS7003;52890;52.490;4.976;2023-06-22T04:21:17;7;7;
66111;PMS7003;52890;52.490;4.976;2023-06-22T04:22:17;4;4;
66111;PMS7003;52890;52.490;4.976;2023-06-22T04:23:17;14;14;
66111;PMS7003;52890;52.490;4.976;2023-06-22T04:24:17;7;7;
66111;PMS7003;52890;52.490;4.976;2023-06-22T04:25:17;6;6;
66111;PMS7003;52890;52.490;4.976;2023-06-22T04:26:17;10;10;
66111;PMS7003;52890;52.490;4.976;2023-06-22T04:27:17;7;7;
66111;PMS7003;52890;52.490;4.976;2023-06-22T04:28:17;8;8;
66111;PMS7003;52890;52.490;4.976;2023-06-22T04:29:17;5;5;
66111;PMS7003;52890;52.490;4.976;2023-06-22T04:30:17;6;6;
66111;PMS7003;52890;52.490;4.976;2023-06-22T04:31:17;5;5;
66111;PMS7003;52890;52.490;4.976;2023-06-22T04:32:17;5;5;
66111;PMS7003;52890;52.490;4.976;2023-06-22T04:33:17;5;5;
66111;PMS7003;52890;52.490;4.976;2023-06-22T04:34:17;7;7;
66111;PMS7003;52890;52.490;4.976;2023-06-22T04:35:17;8;8;
66111;PMS7003;52890;52.490;4.976;2023-06-22T04:36:17;12;12;
66111;PMS7003;52890;52.490;4.976;2023-06-22T04:37:17;10;10;
66111;PMS7003;52890;52.490;4.976;2023-06-22T04:38:17;9;9;
66111;PMS7003;52890;52.490;4.976;2023-06-22T04:39:17;7;7;
66111;PMS7003;52890;52.490;4.976;2023-06-22T04:40:17;10;10;
66111;PMS7003;52890;52.490;4.976;2023-06-22T04:41:17;9;9;
66111;PMS7003;52890;52.490;4.976;2023-06-22T04:42:17;7;7;
66111;PMS7003;52890;52.490;4.976;2023-06-22T04:43:17;9;9;
66111;PMS7003;52890;52.490;4.976;2023-06-22T04:44:18;9;9;
66111;PMS7003;52890;52.490;4.976;2023-06-22T04:45:17;7;7;
66111;PMS7003;52890;52.490;4.976;2023-06-22T04:46:17;5;5;
66111;PMS7003;52890;52.490;4.976;2023-06-22T04:47:17;6;6;
66111;PMS7003;52890;52.490;4.976;2023-06-22T04:48:17;6;6;
66111;PMS7003;52890;52.490;4.976;2023-06-22T04:49:17;6;6;
66111;PMS7003;52890;52.490;4.976;2023-06-22T04:50:17;8;8;
66111;PMS7003;52890;52.490;4.976;2023-06-22T04:51:17;10;10;
66111;PMS7003;52890;52.490;4.976;2023-06-22T04:52:17;5;5;
66111;PMS7003;52890;52.490;4.976;2023-06-22T04:53:17;5;5;
66111;PMS7003;52890;52.490;4.976;2023-06-22T04:54:17;8;8;
66111;PMS7003;52890;52.490;4.976;2023-06-22T04:55:20;7;7;
66111;PMS7003;52890;52.490;4.976;2023-06-22T04:56:17;6;6;
66111;PMS7003;52890;52.490;4.976;2023-06-22T04:57:17;8;8;
66111;PMS7003;52890;52.490;4.976;2023-06-22T04:58:17;11;11;
66111;PMS7003;52890;52.490;4.976;2023-06-22T05:00:18;18;20;
66111;PMS7003;52890;52.490;4.976;2023-06-22T05:01:17;14;15;
66111;PMS7003;52890;52.490;4.976;2023-06-22T05:02:17;10;10;
66111;PMS7003;52890;52.490;4.976;2023-06-22T05:03:17;8;8;
66111;PMS7003;52890;52.490;4.976;2023-06-22T05:04:17;18;18;
66111;PMS7003;52890;52.490;4.976;2023-06-22T05:05:17;9;9;
66111;PMS7003;52890;52.490;4.976;2023-06-22T05:06:17;7;7;
66111;PMS7003;52890;52.490;4.976;2023-06-22T05:07:17;9;9;
66111;PMS7003;52890;52.490;4.976;2023-06-22T05:08:18;8;8;
66111;PMS7003;52890;52.490;4.976;2023-06-22T05:09:18;14;14;
66111;PMS7003;52890;52.490;4.976;2023-06-22T05:10:17;15;15;
66111;PMS7003;52890;52.490;4.976;2023-06-22T05:11:17;7;7;
66111;PMS7003;52890;52.490;4.976;2023-06-22T05:12:17;16;16;
66111;PMS7003;52890;52.490;4.976;2023-06-22T05:13:17;11;11;
66111;PMS7003;52890;52.490;4.976;2023-06-22T05:14:17;17;17;
66111;PMS7003;52890;52.490;4.976;2023-06-22T05:15:17;17;17;
66111;PMS7003;52890;52.490;4.976;2023-06-22T05:16:17;8;8;
66111;PMS7003;52890;52.490;4.976;2023-06-22T05:17:17;12;12;
66111;PMS7003;52890;52.490;4.976;2023-06-22T05:18:17;8;8;
66111;PMS7003;52890;52.490;4.976;2023-06-22T05:19:17;9;9;
66111;PMS7003;52890;52.490;4.976;2023-06-22T05:20:17;15;15;
66111;PMS7003;52890;52.490;4.976;2023-06-22T05:21:18;11;11;
66111;PMS7003;52890;52.490;4.976;2023-06-22T05:22:17;14;14;
66111;PMS7003;52890;52.490;4.976;2023-06-22T05:23:17;14;14;
66111;PMS7003;52890;52.490;4.976;2023-06-22T05:24:17;16;16;
66111;PMS7003;52890;52.490;4.976;2023-06-22T05:25:17;16;16;
66111;PMS7003;52890;52.490;4.976;2023-06-22T05:26:17;8;8;
66111;PMS7003;52890;52.490;4.976;2023-06-22T05:27:17;7;7;
66111;PMS7003;52890;52.490;4.976;2023-06-22T05:28:17;15;15;
66111;PMS7003;52890;52.490;4.976;2023-06-22T05:29:17;14;14;
66111;PMS7003;52890;52.490;4.976;2023-06-22T05:30:17;8;8;
66111;PMS7003;52890;52.490;4.976;2023-06-22T05:31:17;12;12;
66111;PMS7003;52890;52.490;4.976;2023-06-22T05:32:17;6;6;
66111;PMS7003;52890;52.490;4.976;2023-06-22T05:33:17;9;9;
66111;PMS7003;52890;52.490;4.976;2023-06-22T05:34:17;7;7;
66111;PMS7003;52890;52.490;4.976;2023-06-22T05:35:17;8;8;
66111;PMS7003;52890;52.490;4.976;2023-06-22T05:36:17;8;8;
66111;PMS7003;52890;52.490;4.976;2023-06-22T05:37:17;15;15;
66111;PMS7003;52890;52.490;4.976;2023-06-22T05:38:17;10;10;
66111;PMS7003;52890;52.490;4.976;2023-06-22T05:39:17;7;7;
66111;PMS7003;52890;52.490;4.976;2023-06-22T05:40:17;11;11;
66111;PMS7003;52890;52.490;4.976;2023-06-22T05:41:17;6;6;
66111;PMS7003;52890;52.490;4.976;2023-06-22T05:42:17;5;5;
66111;PMS7003;52890;52.490;4.976;2023-06-22T05:43:17;7;7;
66111;PMS7003;52890;52.490;4.976;2023-06-22T05:44:18;4;4;
66111;PMS7003;52890;52.490;4.976;2023-06-22T05:45:17;6;6;
66111;PMS7003;52890;52.490;4.976;2023-06-22T05:46:18;6;6;
66111;PMS7003;52890;52.490;4.976;2023-06-22T05:47:17;10;10;
66111;PMS7003;52890;52.490;4.976;2023-06-22T05:48:17;4;4;
66111;PMS7003;52890;52.490;4.976;2023-06-22T05:49:17;10;10;
66111;PMS7003;52890;52.490;4.976;2023-06-22T05:50:17;29;29;
66111;PMS7003;52890;52.490;4.976;2023-06-22T05:51:17;23;23;
66111;PMS7003;52890;52.490;4.976;2023-06-22T05:52:17;20;20;
66111;PMS7003;52890;52.490;4.976;2023-06-22T05:53:17;22;22;
66111;PMS7003;52890;52.490;4.976;2023-06-22T05:54:17;13;13;
66111;PMS7003;52890;52.490;4.976;2023-06-22T05:55:17;18;18;
66111;PMS7003;52890;52.490;4.976;2023-06-22T05:56:17;10;10;
66111;PMS7003;52890;52.490;4.976;2023-06-22T05:57:17;8;8;
66111;PMS7003;52890;52.490;4.976;2023-06-22T05:58:17;8;8;
66111;PMS7003;52890;52.490;4.976;2023-06-22T06:00:18;5;5;
66111;PMS7003;52890;52.490;4.976;2023-06-22T06:01:17;8;8;
66111;PMS7003;52890;52.490;4.976;2023-06-22T06:02:17;23;23;
66111;PMS7003;52890;52.490;4.976;2023-06-22T06:03:17;28;28;
66111;PMS7003;52890;52.490;4.976;2023-06-22T06:04:18;12;12;
66111;PMS7003;52890;52.490;4.976;2023-06-22T06:05:17;30;31;
66111;PMS7003;52890;52.490;4.976;2023-06-22T06:06:18;27;27;
66111;PMS7003;52890;52.490;4.976;2023-06-22T06:07:18;13;13;
66111;PMS7003;52890;52.490;4.976;2023-06-22T06:08:17;6;6;
66111;PMS7003;52890;52.490;4.976;2023-06-22T06:09:17;10;10;
66111;PMS7003;52890;52.490;4.976;2023-06-22T06:10:17;18;18;
66111;PMS7003;52890;52.490;4.976;2023-06-22T06:12:17;12;13;
66111;PMS7003;52890;52.490;4.976;2023-06-22T06:13:17;11;12;
66111;PMS7003;52890;52.490;4.976;2023-06-22T06:14:17;30;11;
66111;PMS7003;52890;52.490;4.976;2023-06-22T06:15:17;24;31;
66111;PMS7003;52890;52.490;4.976;2023-06-22T06:16:17;37;24;
66111;PMS7003;52890;52.490;4.976;2023-06-22T06:17:17;7;42;
66111;PMS7003;52890;52.490;4.976;2023-06-22T06:18:17;28;7;
66111;PMS7003;52890;52.490;4.976;2023-06-22T06:19:17;16;28;
66111;PMS7003;52890;52.490;4.976;2023-06-22T06:20:18;24;16;
66111;PMS7003;52890;52.490;4.976;2023-06-22T06:21:17;11;24;
66111;PMS7003;52890;52.490;4.976;2023-06-22T06:22:17;34;11;
66111;PMS7003;52890;52.490;4.976;2023-06-22T06:23:18;18;37;
66111;PMS7003;52890;52.490;4.976;2023-06-22T06:24:17;12;18;
66111;PMS7003;52890;52.490;4.976;2023-06-22T06:25:17;2;12;
66111;PMS7003;52890;52.490;4.976;2023-06-22T06:26:17;24;2;
66111;PMS7003;52890;52.490;4.976;2023-06-22T06:27:17;32;24;
66111;PMS7003;52890;52.490;4.976;2023-06-22T06:28:17;26;36;
66111;PMS7003;52890;52.490;4.976;2023-06-22T06:29:17;35;26;
66111;PMS7003;52890;52.490;4.976;2023-06-22T06:30:18;37;41;
66111;PMS7003;52890;52.490;4.976;2023-06-22T06:31:17;31;42;
66111;PMS7003;52890;52.490;4.976;2023-06-22T06:32:17;28;34;
66111;PMS7003;52890;52.490;4.976;2023-06-22T06:33:17;30;28;
66111;PMS7003;52890;52.490;4.976;2023-06-22T06:34:17;32;30;
66111;PMS7003;52890;52.490;4.976;2023-06-22T06:35:17;12;34;
66111;PMS7003;52890;52.490;4.976;2023-06-22T06:36:17;26;12;
66111;PMS7003;52890;52.490;4.976;2023-06-22T06:37:17;12;26;
66111;PMS7003;52890;52.490;4.976;2023-06-22T06:38:17;33;12;
66111;PMS7003;52890;52.490;4.976;2023-06-22T06:39:17;30;36;
66111;PMS7003;52890;52.490;4.976;2023-06-22T06:40:18;9;31;
66111;PMS7003;52890;52.490;4.976;2023-06-22T06:41:18;27;9;
66111;PMS7003;52890;52.490;4.976;2023-06-22T06:42:17;11;29;
66111;PMS7003;52890;52.490;4.976;2023-06-22T06:43:17;13;11;
66111;PMS7003;52890;52.490;4.976;2023-06-22T06:44:17;33;13;
66111;PMS7003;52890;52.490;4.976;2023-06-22T06:45:18;8;36;
66111;PMS7003;52890;52.490;4.976;2023-06-22T06:46:17;27;8;
66111;PMS7003;52890;52.490;4.976;2023-06-22T06:47:17;13;27;
66111;PMS7003;52890;52.490;4.976;2023-06-22T06:48:17;14;13;
66111;PMS7003;52890;52.490;4.976;2023-06-22T06:49:17;11;14;
66111;PMS7003;52890;52.490;4.976;2023-06-22T06:50:18;18;11;
66111;PMS7003;52890;52.490;4.976;2023-06-22T06:51:17;15;18;
66111;PMS7003;52890;52.490;4.976;2023-06-22T06:52:17;11;15;
66111;PMS7003;52890;52.490;4.976;2023-06-22T06:53:17;28;11;
66111;PMS7003;52890;52.490;4.976;2023-06-22T06:54:17;12;28;
66111;PMS7003;52890;52.490;4.976;2023-06-22T06:55:17;31;12;
66111;PMS7003;52890;52.490;4.976;2023-06-22T06:56:17;30;32;
66111;PMS7003;52890;52.490;4.976;2023-06-22T06:57:17;27;31;
66111;PMS7003;52890;52.490;4.976;2023-06-22T06:58:17;31;27;